sensor_id;sensor_type;location;lat;lon;timestamp;P1;durP1;ratioP1;P2;durP2;ratioP2
81697;SDS011;71109;52.514;5.708;2023-07-31T00:02:14;2.70;;;1.60;;
81697;SDS011;71109;52.514;5.708;2023-07-31T00:04:39;3.58;;;1.52;;
81697;SDS011;71109;52.514;5.708;2023-07-31T00:07:05;3.30;;;1.67;;
81697;SDS011;71109;52.514;5.708;2023-07-31T00:09:31;2.85;;;1.60;;
81697;SDS011;71109;52.514;5.708;2023-07-31T00:11:59;4.38;;;1.40;;
81697;SDS011;71109;52.514;5.708;2023-07-31T00:14:25;3.83;;;1.48;;
81697;SDS011;71109;52.514;5.708;2023-07-31T00:16:50;1.90;;;1.20;;
81697;SDS011;71109;52.514;5.708;2023-07-31T00:19:16;3.65;;;1.67;;
81697;SDS011;71109;52.514;5.708;2023-07-31T00:21:41;2.13;;;1.30;;
81697;SDS011;71109;52.514;5.708;2023-07-31T00:24:06;2.58;;;1.50;;
81697;SDS011;71109;52.514;5.708;2023-07-31T00:26:32;3.25;;;2.03;;
81697;SDS011;71109;52.514;5.708;2023-07-31T00:28:57;3.22;;;2.03;;
81697;SDS011;71109;52.514;5.708;2023-07-31T00:31:22;2.58;;;2.25;;
81697;SDS011;71109;52.514;5.708;2023-07-31T00:33:48;2.87;;;2.03;;
81697;SDS011;71109;52.514;5.708;2023-07-31T00:36:13;2.58;;;1.90;;
81697;SDS011;71109;52.514;5.708;2023-07-31T00:38:39;4.75;;;2.17;;
81697;SDS011;71109;52.514;5.708;2023-07-31T00:41:10;3.35;;;2.15;;
81697;SDS011;71109;52.514;5.708;2023-07-31T00:43:36;2.78;;;2.17;;
81697;SDS011;71109;52.514;5.708;2023-07-31T00:46:01;7.97;;;2.95;;
81697;SDS011;71109;52.514;5.708;2023-07-31T00:48:27;5.18;;;2.33;;
81697;SDS011;71109;52.514;5.708;2023-07-31T00:50:52;3.25;;;2.55;;
81697;SDS011;71109;52.514;5.708;2023-07-31T00:53:18;4.90;;;2.33;;
81697;SDS011;71109;52.514;5.708;2023-07-31T00:55:43;4.60;;;2.30;;
81697;SDS011;71109;52.514;5.708;2023-07-31T00:58:09;5.07;;;2.47;;
81697;SDS011;71109;52.514;5.708;2023-07-31T01:00:35;2.58;;;1.98;;
81697;SDS011;71109;52.514;5.708;2023-07-31T01:03:00;3.83;;;2.20;;
81697;SDS011;71109;52.514;5.708;2023-07-31T01:06:09;4.78;;;2.38;;
81697;SDS011;71109;52.514;5.708;2023-07-31T01:08:28;12.70;;;3.58;;
81697;SDS011;71109;52.514;5.708;2023-07-31T01:11:02;5.40;;;2.60;;
81697;SDS011;71109;52.514;5.708;2023-07-31T01:13:33;9.52;;;2.30;;
81697;SDS011;71109;52.514;5.708;2023-07-31T01:15:58;6.57;;;2.63;;
81697;SDS011;71109;52.514;5.708;2023-07-31T01:18:24;10.63;;;2.73;;
81697;SDS011;71109;52.514;5.708;2023-07-31T01:20:53;11.40;;;2.57;;
81697;SDS011;71109;52.514;5.708;2023-07-31T01:26:18;10.38;;;2.60;;
81697;SDS011;71109;52.514;5.708;2023-07-31T01:31:14;10.50;;;3.30;;
81697;SDS011;71109;52.514;5.708;2023-07-31T01:33:42;6.45;;;2.75;;
81697;SDS011;71109;52.514;5.708;2023-07-31T01:36:08;17.48;;;3.97;;
81697;SDS011;71109;52.514;5.708;2023-07-31T01:38:33;9.48;;;3.55;;
81697;SDS011;71109;52.514;5.708;2023-07-31T01:40:59;15.32;;;4.38;;
81697;SDS011;71109;52.514;5.708;2023-07-31T01:43:24;14.98;;;3.97;;
81697;SDS011;71109;52.514;5.708;2023-07-31T01:45:49;10.00;;;3.95;;
81697;SDS011;71109;52.514;5.708;2023-07-31T01:48:15;21.50;;;5.25;;
81697;SDS011;71109;52.514;5.708;2023-07-31T01:50:40;15.48;;;4.38;;
81697;SDS011;71109;52.514;5.708;2023-07-31T01:53:05;15.48;;;4.85;;
81697;SDS011;71109;52.514;5.708;2023-07-31T01:55:31;14.52;;;4.32;;
81697;SDS011;71109;52.514;5.708;2023-07-31T01:57:56;16.47;;;3.90;;
81697;SDS011;71109;52.514;5.708;2023-07-31T02:00:22;14.20;;;5.25;;
81697;SDS011;71109;52.514;5.708;2023-07-31T02:02:47;13.45;;;5.60;;
81697;SDS011;71109;52.514;5.708;2023-07-31T02:05:12;15.93;;;5.33;;
81697;SDS011;71109;52.514;5.708;2023-07-31T02:07:38;16.58;;;4.65;;
81697;SDS011;71109;52.514;5.708;2023-07-31T02:10:03;18.83;;;4.00;;
81697;SDS011;71109;52.514;5.708;2023-07-31T02:12:29;16.27;;;4.72;;
81697;SDS011;71109;52.514;5.708;2023-07-31T02:14:57;21.20;;;4.70;;
81697;SDS011;71109;52.514;5.708;2023-07-31T02:17:22;24.35;;;5.07;;
81697;SDS011;71109;52.514;5.708;2023-07-31T02:19:48;15.00;;;5.00;;
81697;SDS011;71109;52.514;5.708;2023-07-31T02:22:13;15.75;;;4.72;;
81697;SDS011;71109;52.514;5.708;2023-07-31T02:24:38;12.20;;;4.10;;
81697;SDS011;71109;52.514;5.708;2023-07-31T02:27:04;17.33;;;4.57;;
81697;SDS011;71109;52.514;5.708;2023-07-31T02:29:29;11.73;;;4.53;;
81697;SDS011;71109;52.514;5.708;2023-07-31T02:31:55;16.35;;;5.00;;
81697;SDS011;71109;52.514;5.708;2023-07-31T02:34:20;20.63;;;5.47;;
81697;SDS011;71109;52.514;5.708;2023-07-31T02:36:45;16.15;;;4.50;;
81697;SDS011;71109;52.514;5.708;2023-07-31T02:39:11;18.33;;;5.25;;
81697;SDS011;71109;52.514;5.708;2023-07-31T02:41:36;18.42;;;4.93;;
81697;SDS011;71109;52.514;5.708;2023-07-31T02:44:01;20.63;;;5.30;;
81697;SDS011;71109;52.514;5.708;2023-07-31T02:46:27;24.53;;;7.03;;
81697;SDS011;71109;52.514;5.708;2023-07-31T02:48:52;24.90;;;6.93;;
81697;SDS011;71109;52.514;5.708;2023-07-31T02:51:17;33.60;;;7.80;;
81697;SDS011;71109;52.514;5.708;2023-07-31T02:53:43;39.45;;;8.35;;
81697;SDS011;71109;52.514;5.708;2023-07-31T02:56:08;34.83;;;8.05;;
81697;SDS011;71109;52.514;5.708;2023-07-31T02:58:34;35.10;;;9.68;;
81697;SDS011;71109;52.514;5.708;2023-07-31T03:00:59;42.08;;;9.23;;
81697;SDS011;71109;52.514;5.708;2023-07-31T03:03:24;30.67;;;7.35;;
81697;SDS011;71109;52.514;5.708;2023-07-31T03:05:50;46.45;;;9.35;;
81697;SDS011;71109;52.514;5.708;2023-07-31T03:08:15;46.55;;;10.95;;
81697;SDS011;71109;52.514;5.708;2023-07-31T03:10:41;39.00;;;7.95;;
81697;SDS011;71109;52.514;5.708;2023-07-31T03:13:06;33.43;;;8.30;;
81697;SDS011;71109;52.514;5.708;2023-07-31T03:15:32;29.85;;;7.05;;
81697;SDS011;71109;52.514;5.708;2023-07-31T03:17:57;38.53;;;8.98;;
81697;SDS011;71109;52.514;5.708;2023-07-31T03:20:23;37.80;;;8.38;;
81697;SDS011;71109;52.514;5.708;2023-07-31T03:22:48;37.03;;;8.95;;
81697;SDS011;71109;52.514;5.708;2023-07-31T03:25:13;42.78;;;9.90;;
81697;SDS011;71109;52.514;5.708;2023-07-31T03:27:39;51.97;;;9.68;;
81697;SDS011;71109;52.514;5.708;2023-07-31T03:30:05;48.45;;;9.63;;
81697;SDS011;71109;52.514;5.708;2023-07-31T03:32:31;39.28;;;9.00;;
81697;SDS011;71109;52.514;5.708;2023-07-31T03:34:57;39.97;;;9.37;;
81697;SDS011;71109;52.514;5.708;2023-07-31T03:37:22;37.85;;;9.40;;
81697;SDS011;71109;52.514;5.708;2023-07-31T03:39:47;46.22;;;9.68;;
81697;SDS011;71109;52.514;5.708;2023-07-31T03:42:13;41.95;;;9.68;;
81697;SDS011;71109;52.514;5.708;2023-07-31T03:44:38;44.07;;;10.20;;
81697;SDS011;71109;52.514;5.708;2023-07-31T03:47:04;52.55;;;9.88;;
81697;SDS011;71109;52.514;5.708;2023-07-31T03:49:30;48.65;;;9.48;;
81697;SDS011;71109;52.514;5.708;2023-07-31T03:51:55;43.33;;;9.05;;
81697;SDS011;71109;52.514;5.708;2023-07-31T03:54:21;40.00;;;9.82;;
81697;SDS011;71109;52.514;5.708;2023-07-31T03:56:46;47.85;;;9.07;;
81697;SDS011;71109;52.514;5.708;2023-07-31T03:59:12;51.33;;;9.47;;
81697;SDS011;71109;52.514;5.708;2023-07-31T04:01:37;44.90;;;10.13;;
81697;SDS011;71109;52.514;5.708;2023-07-31T04:04:02;45.23;;;9.60;;
81697;SDS011;71109;52.514;5.708;2023-07-31T04:06:28;48.28;;;9.07;;
81697;SDS011;71109;52.514;5.708;2023-07-31T04:08:53;38.27;;;9.80;;
81697;SDS011;71109;52.514;5.708;2023-07-31T04:11:18;35.40;;;8.38;;
81697;SDS011;71109;52.514;5.708;2023-07-31T04:13:44;40.30;;;9.38;;
81697;SDS011;71109;52.514;5.708;2023-07-31T04:16:09;36.42;;;8.93;;
81697;SDS011;71109;52.514;5.708;2023-07-31T04:18:35;53.78;;;10.82;;
81697;SDS011;71109;52.514;5.708;2023-07-31T04:21:00;57.50;;;11.10;;
81697;SDS011;71109;52.514;5.708;2023-07-31T04:23:27;48.28;;;8.70;;
81697;SDS011;71109;52.514;5.708;2023-07-31T04:25:52;40.75;;;10.00;;
81697;SDS011;71109;52.514;5.708;2023-07-31T04:28:18;52.00;;;11.15;;
81697;SDS011;71109;52.514;5.708;2023-07-31T04:30:43;54.65;;;10.93;;
81697;SDS011;71109;52.514;5.708;2023-07-31T04:33:08;58.83;;;11.50;;
81697;SDS011;71109;52.514;5.708;2023-07-31T04:35:34;44.85;;;10.40;;
81697;SDS011;71109;52.514;5.708;2023-07-31T04:37:59;54.70;;;11.95;;
81697;SDS011;71109;52.514;5.708;2023-07-31T04:40:24;64.35;;;12.35;;
81697;SDS011;71109;52.514;5.708;2023-07-31T04:42:50;46.95;;;9.25;;
81697;SDS011;71109;52.514;5.708;2023-07-31T04:45:15;38.25;;;10.15;;
81697;SDS011;71109;52.514;5.708;2023-07-31T04:47:41;51.28;;;10.13;;
81697;SDS011;71109;52.514;5.708;2023-07-31T04:50:06;55.90;;;12.55;;
81697;SDS011;71109;52.514;5.708;2023-07-31T04:52:32;49.70;;;10.07;;
81697;SDS011;71109;52.514;5.708;2023-07-31T04:54:57;51.45;;;10.00;;
81697;SDS011;71109;52.514;5.708;2023-07-31T04:57:23;50.42;;;10.00;;
81697;SDS011;71109;52.514;5.708;2023-07-31T04:59:48;48.47;;;9.90;;
81697;SDS011;71109;52.514;5.708;2023-07-31T05:02:13;33.00;;;9.23;;
81697;SDS011;71109;52.514;5.708;2023-07-31T05:04:39;62.15;;;10.52;;
81697;SDS011;71109;52.514;5.708;2023-07-31T05:07:04;38.08;;;10.02;;
81697;SDS011;71109;52.514;5.708;2023-07-31T05:09:30;38.78;;;9.52;;
81697;SDS011;71109;52.514;5.708;2023-07-31T05:11:55;30.77;;;8.77;;
81697;SDS011;71109;52.514;5.708;2023-07-31T05:14:20;34.20;;;8.57;;
81697;SDS011;71109;52.514;5.708;2023-07-31T05:16:46;44.63;;;10.27;;
81697;SDS011;71109;52.514;5.708;2023-07-31T05:19:11;48.05;;;10.30;;
81697;SDS011;71109;52.514;5.708;2023-07-31T05:21:37;32.83;;;9.98;;
81697;SDS011;71109;52.514;5.708;2023-07-31T05:24:02;38.95;;;9.10;;
81697;SDS011;71109;52.514;5.708;2023-07-31T05:26:28;46.13;;;10.32;;
81697;SDS011;71109;52.514;5.708;2023-07-31T05:28:53;58.17;;;9.93;;
81697;SDS011;71109;52.514;5.708;2023-07-31T05:31:18;40.20;;;10.17;;
81697;SDS011;71109;52.514;5.708;2023-07-31T05:33:44;47.10;;;9.75;;
81697;SDS011;71109;52.514;5.708;2023-07-31T05:36:10;48.47;;;9.93;;
81697;SDS011;71109;52.514;5.708;2023-07-31T05:38:35;42.13;;;10.05;;
81697;SDS011;71109;52.514;5.708;2023-07-31T05:41:01;39.45;;;10.02;;
81697;SDS011;71109;52.514;5.708;2023-07-31T05:43:26;51.03;;;10.40;;
81697;SDS011;71109;52.514;5.708;2023-07-31T05:45:52;38.75;;;9.07;;
81697;SDS011;71109;52.514;5.708;2023-07-31T05:48:17;34.33;;;9.52;;
81697;SDS011;71109;52.514;5.708;2023-07-31T05:50:43;38.42;;;9.00;;
81697;SDS011;71109;52.514;5.708;2023-07-31T05:53:08;33.10;;;11.63;;
81697;SDS011;71109;52.514;5.708;2023-07-31T05:55:35;34.38;;;9.25;;
81697;SDS011;71109;52.514;5.708;2023-07-31T05:58:01;32.08;;;8.43;;
81697;SDS011;71109;52.514;5.708;2023-07-31T06:00:26;25.65;;;7.97;;
81697;SDS011;71109;52.514;5.708;2023-07-31T06:02:52;26.63;;;6.30;;
81697;SDS011;71109;52.514;5.708;2023-07-31T06:05:18;23.55;;;6.22;;
81697;SDS011;71109;52.514;5.708;2023-07-31T06:07:43;21.13;;;5.85;;
81697;SDS011;71109;52.514;5.708;2023-07-31T06:10:08;18.20;;;5.13;;
81697;SDS011;71109;52.514;5.708;2023-07-31T06:12:34;15.85;;;6.05;;
81697;SDS011;71109;52.514;5.708;2023-07-31T06:15:01;14.05;;;5.15;;
81697;SDS011;71109;52.514;5.708;2023-07-31T06:17:27;18.42;;;5.30;;
81697;SDS011;71109;52.514;5.708;2023-07-31T06:19:52;20.70;;;5.82;;
81697;SDS011;71109;52.514;5.708;2023-07-31T06:22:18;15.70;;;5.07;;
81697;SDS011;71109;52.514;5.708;2023-07-31T06:24:43;12.63;;;4.60;;
81697;SDS011;71109;52.514;5.708;2023-07-31T06:27:09;12.90;;;4.38;;
81697;SDS011;71109;52.514;5.708;2023-07-31T06:29:35;15.82;;;4.32;;
81697;SDS011;71109;52.514;5.708;2023-07-31T06:32:00;15.27;;;4.00;;
81697;SDS011;71109;52.514;5.708;2023-07-31T06:34:26;9.93;;;3.67;;
81697;SDS011;71109;52.514;5.708;2023-07-31T06:36:51;7.38;;;3.47;;
81697;SDS011;71109;52.514;5.708;2023-07-31T06:39:16;13.57;;;3.88;;
81697;SDS011;71109;52.514;5.708;2023-07-31T06:41:42;9.95;;;3.47;;
81697;SDS011;71109;52.514;5.708;2023-07-31T06:44:09;10.00;;;4.22;;
81697;SDS011;71109;52.514;5.708;2023-07-31T06:46:34;13.00;;;4.20;;
81697;SDS011;71109;52.514;5.708;2023-07-31T06:49:00;18.63;;;3.93;;
81697;SDS011;71109;52.514;5.708;2023-07-31T06:51:25;12.60;;;3.65;;
81697;SDS011;71109;52.514;5.708;2023-07-31T06:53:50;13.60;;;4.93;;
81697;SDS011;71109;52.514;5.708;2023-07-31T06:56:16;13.13;;;3.95;;
81697;SDS011;71109;52.514;5.708;2023-07-31T06:58:41;13.38;;;4.78;;
81697;SDS011;71109;52.514;5.708;2023-07-31T07:01:06;8.20;;;3.13;;
81697;SDS011;71109;52.514;5.708;2023-07-31T07:03:32;12.88;;;3.20;;
81697;SDS011;71109;52.514;5.708;2023-07-31T07:05:57;7.03;;;3.30;;
81697;SDS011;71109;52.514;5.708;2023-07-31T07:08:23;13.23;;;3.60;;
81697;SDS011;71109;52.514;5.708;2023-07-31T07:10:49;6.45;;;3.05;;
81697;SDS011;71109;52.514;5.708;2023-07-31T07:13:14;9.37;;;2.90;;
81697;SDS011;71109;52.514;5.708;2023-07-31T07:15:40;10.68;;;3.42;;
81697;SDS011;71109;52.514;5.708;2023-07-31T07:18:05;7.63;;;3.78;;
81697;SDS011;71109;52.514;5.708;2023-07-31T07:20:30;10.32;;;3.85;;
81697;SDS011;71109;52.514;5.708;2023-07-31T07:22:56;6.60;;;3.07;;
81697;SDS011;71109;52.514;5.708;2023-07-31T07:25:21;7.88;;;4.20;;
81697;SDS011;71109;52.514;5.708;2023-07-31T07:27:46;10.45;;;4.00;;
81697;SDS011;71109;52.514;5.708;2023-07-31T07:30:12;9.83;;;3.90;;
81697;SDS011;71109;52.514;5.708;2023-07-31T07:32:37;10.18;;;3.33;;
81697;SDS011;71109;52.514;5.708;2023-07-31T07:35:02;7.10;;;3.10;;
81697;SDS011;71109;52.514;5.708;2023-07-31T07:37:28;10.73;;;4.22;;
81697;SDS011;71109;52.514;5.708;2023-07-31T07:39:53;9.52;;;3.30;;
81697;SDS011;71109;52.514;5.708;2023-07-31T07:42:19;7.85;;;3.17;;
81697;SDS011;71109;52.514;5.708;2023-07-31T07:44:44;6.55;;;3.33;;
81697;SDS011;71109;52.514;5.708;2023-07-31T07:47:10;9.10;;;3.03;;
81697;SDS011;71109;52.514;5.708;2023-07-31T07:49:35;5.90;;;2.78;;
81697;SDS011;71109;52.514;5.708;2023-07-31T07:52:00;3.78;;;2.47;;
81697;SDS011;71109;52.514;5.708;2023-07-31T07:54:26;6.18;;;4.10;;
81697;SDS011;71109;52.514;5.708;2023-07-31T07:56:52;6.35;;;2.75;;
81697;SDS011;71109;52.514;5.708;2023-07-31T07:59:17;7.65;;;2.88;;
81697;SDS011;71109;52.514;5.708;2023-07-31T08:01:42;8.20;;;2.90;;
81697;SDS011;71109;52.514;5.708;2023-07-31T08:04:08;4.40;;;2.43;;
81697;SDS011;71109;52.514;5.708;2023-07-31T08:06:33;6.30;;;2.75;;
81697;SDS011;71109;52.514;5.708;2023-07-31T08:08:59;4.70;;;2.60;;
81697;SDS011;71109;52.514;5.708;2023-07-31T08:11:24;5.68;;;2.50;;
81697;SDS011;71109;52.514;5.708;2023-07-31T08:13:50;11.20;;;2.47;;
81697;SDS011;71109;52.514;5.708;2023-07-31T08:16:15;5.40;;;2.63;;
81697;SDS011;71109;52.514;5.708;2023-07-31T08:18:41;4.60;;;2.45;;
81697;SDS011;71109;52.514;5.708;2023-07-31T08:21:07;4.00;;;1.92;;
81697;SDS011;71109;52.514;5.708;2023-07-31T08:23:33;2.85;;;2.28;;
81697;SDS011;71109;52.514;5.708;2023-07-31T08:25:58;4.40;;;2.47;;
81697;SDS011;71109;52.514;5.708;2023-07-31T08:28:24;4.27;;;2.10;;
81697;SDS011;71109;52.514;5.708;2023-07-31T08:30:49;4.93;;;2.53;;
81697;SDS011;71109;52.514;5.708;2023-07-31T08:33:15;5.47;;;2.13;;
81697;SDS011;71109;52.514;5.708;2023-07-31T08:35:41;4.55;;;2.45;;
81697;SDS011;71109;52.514;5.708;2023-07-31T08:38:06;3.72;;;2.03;;
81697;SDS011;71109;52.514;5.708;2023-07-31T08:40:31;4.05;;;1.80;;
81697;SDS011;71109;52.514;5.708;2023-07-31T08:42:57;2.88;;;1.80;;
81697;SDS011;71109;52.514;5.708;2023-07-31T08:45:27;9.10;;;2.35;;
81697;SDS011;71109;52.514;5.708;2023-07-31T08:47:53;3.22;;;2.10;;
81697;SDS011;71109;52.514;5.708;2023-07-31T08:50:19;2.97;;;2.28;;
81697;SDS011;71109;52.514;5.708;2023-07-31T08:52:45;5.60;;;2.33;;
81697;SDS011;71109;52.514;5.708;2023-07-31T08:55:11;4.70;;;1.60;;
81697;SDS011;71109;52.514;5.708;2023-07-31T08:57:37;4.85;;;2.50;;
81697;SDS011;71109;52.514;5.708;2023-07-31T09:00:07;3.47;;;1.77;;
81697;SDS011;71109;52.514;5.708;2023-07-31T09:02:37;1.60;;;1.25;;
81697;SDS011;71109;52.514;5.708;2023-07-31T09:05:06;2.17;;;1.63;;
81697;SDS011;71109;52.514;5.708;2023-07-31T09:07:33;3.83;;;1.52;;
81697;SDS011;71109;52.514;5.708;2023-07-31T09:10:00;2.78;;;1.80;;
81697;SDS011;71109;52.514;5.708;2023-07-31T09:12:25;3.13;;;1.95;;
81697;SDS011;71109;52.514;5.708;2023-07-31T09:14:51;3.67;;;1.65;;
81697;SDS011;71109;52.514;5.708;2023-07-31T09:17:16;3.10;;;2.08;;
81697;SDS011;71109;52.514;5.708;2023-07-31T09:19:56;2.38;;;1.98;;
81697;SDS011;71109;52.514;5.708;2023-07-31T09:22:32;7.28;;;2.17;;
81697;SDS011;71109;52.514;5.708;2023-07-31T09:25:04;2.55;;;1.83;;
81697;SDS011;71109;52.514;5.708;2023-07-31T09:27:50;3.50;;;1.52;;
81697;SDS011;71109;52.514;5.708;2023-07-31T09:30:16;2.55;;;1.67;;
81697;SDS011;71109;52.514;5.708;2023-07-31T09:32:43;2.45;;;1.80;;
81697;SDS011;71109;52.514;5.708;2023-07-31T09:37:40;3.13;;;2.15;;
81697;SDS011;71109;52.514;5.708;2023-07-31T09:40:06;2.97;;;2.47;;
81697;SDS011;71109;52.514;5.708;2023-07-31T09:42:32;3.80;;;2.17;;
81697;SDS011;71109;52.514;5.708;2023-07-31T09:45:08;4.32;;;2.60;;
81697;SDS011;71109;52.514;5.708;2023-07-31T09:47:34;7.88;;;2.25;;
81697;SDS011;71109;52.514;5.708;2023-07-31T09:50:00;2.92;;;1.90;;
81697;SDS011;71109;52.514;5.708;2023-07-31T09:52:26;2.13;;;1.92;;
81697;SDS011;71109;52.514;5.708;2023-07-31T09:54:52;2.05;;;1.90;;
81697;SDS011;71109;52.514;5.708;2023-07-31T09:57:17;4.15;;;1.50;;
81697;SDS011;71109;52.514;5.708;2023-07-31T09:59:46;2.67;;;2.10;;
81697;SDS011;71109;52.514;5.708;2023-07-31T10:02:14;3.17;;;2.03;;
81697;SDS011;71109;52.514;5.708;2023-07-31T10:04:41;2.60;;;1.92;;
81697;SDS011;71109;52.514;5.708;2023-07-31T10:07:07;4.82;;;2.10;;
81697;SDS011;71109;52.514;5.708;2023-07-31T10:09:33;4.15;;;2.28;;
81697;SDS011;71109;52.514;5.708;2023-07-31T10:12:00;3.53;;;1.90;;
81697;SDS011;71109;52.514;5.708;2023-07-31T10:14:26;2.53;;;1.58;;
81697;SDS011;71109;52.514;5.708;2023-07-31T10:16:52;2.30;;;1.60;;
81697;SDS011;71109;52.514;5.708;2023-07-31T10:19:18;1.77;;;1.30;;
81697;SDS011;71109;52.514;5.708;2023-07-31T10:21:44;1.85;;;1.27;;
81697;SDS011;71109;52.514;5.708;2023-07-31T10:24:10;1.35;;;0.93;;
81697;SDS011;71109;52.514;5.708;2023-07-31T10:26:37;1.08;;;0.85;;
81697;SDS011;71109;52.514;5.708;2023-07-31T10:29:03;1.25;;;0.90;;
81697;SDS011;71109;52.514;5.708;2023-07-31T10:31:29;2.47;;;0.82;;
81697;SDS011;71109;52.514;5.708;2023-07-31T10:33:54;1.85;;;0.90;;
81697;SDS011;71109;52.514;5.708;2023-07-31T10:36:21;4.88;;;1.48;;
81697;SDS011;71109;52.514;5.708;2023-07-31T10:38:50;2.00;;;1.40;;
81697;SDS011;71109;52.514;5.708;2023-07-31T10:41:16;5.22;;;1.95;;
81697;SDS011;71109;52.514;5.708;2023-07-31T10:43:41;6.68;;;1.60;;
81697;SDS011;71109;52.514;5.708;2023-07-31T10:46:07;6.32;;;2.88;;
81697;SDS011;71109;52.514;5.708;2023-07-31T10:48:34;4.32;;;1.40;;
81697;SDS011;71109;52.514;5.708;2023-07-31T10:51:02;10.52;;;1.63;;
81697;SDS011;71109;52.514;5.708;2023-07-31T10:53:41;7.68;;;2.13;;
81697;SDS011;71109;52.514;5.708;2023-07-31T10:56:09;4.10;;;1.45;;
81697;SDS011;71109;52.514;5.708;2023-07-31T10:58:40;3.95;;;1.50;;
81697;SDS011;71109;52.514;5.708;2023-07-31T11:01:09;10.32;;;1.70;;
81697;SDS011;71109;52.514;5.708;2023-07-31T11:03:44;7.07;;;2.77;;
81697;SDS011;71109;52.514;5.708;2023-07-31T11:08:49;11.43;;;2.33;;
81697;SDS011;71109;52.514;5.708;2023-07-31T11:11:16;10.23;;;3.28;;
81697;SDS011;71109;52.514;5.708;2023-07-31T11:13:49;10.25;;;3.67;;
81697;SDS011;71109;52.514;5.708;2023-07-31T11:16:15;14.05;;;4.00;;
81697;SDS011;71109;52.514;5.708;2023-07-31T11:18:45;11.27;;;3.97;;
81697;SDS011;71109;52.514;5.708;2023-07-31T11:21:13;12.98;;;3.65;;
81697;SDS011;71109;52.514;5.708;2023-07-31T11:23:39;19.02;;;4.18;;
81697;SDS011;71109;52.514;5.708;2023-07-31T11:26:06;11.13;;;4.35;;
81697;SDS011;71109;52.514;5.708;2023-07-31T11:28:32;12.38;;;3.75;;
81697;SDS011;71109;52.514;5.708;2023-07-31T11:30:59;11.43;;;4.70;;
81697;SDS011;71109;52.514;5.708;2023-07-31T11:33:25;23.20;;;5.68;;
81697;SDS011;71109;52.514;5.708;2023-07-31T11:35:50;15.15;;;3.92;;
81697;SDS011;71109;52.514;5.708;2023-07-31T11:38:22;16.13;;;4.25;;
81697;SDS011;71109;52.514;5.708;2023-07-31T11:40:49;16.20;;;3.80;;
81697;SDS011;71109;52.514;5.708;2023-07-31T11:43:14;18.00;;;3.60;;
81697;SDS011;71109;52.514;5.708;2023-07-31T11:45:44;13.55;;;4.25;;
81697;SDS011;71109;52.514;5.708;2023-07-31T11:48:17;11.90;;;3.53;;
81697;SDS011;71109;52.514;5.708;2023-07-31T11:50:46;13.38;;;4.10;;
81697;SDS011;71109;52.514;5.708;2023-07-31T11:53:11;12.57;;;3.65;;
81697;SDS011;71109;52.514;5.708;2023-07-31T11:55:37;9.70;;;3.33;;
81697;SDS011;71109;52.514;5.708;2023-07-31T11:58:03;11.70;;;3.80;;
81697;SDS011;71109;52.514;5.708;2023-07-31T12:00:28;12.63;;;3.72;;
81697;SDS011;71109;52.514;5.708;2023-07-31T12:02:54;8.20;;;3.47;;
81697;SDS011;71109;52.514;5.708;2023-07-31T12:05:19;10.85;;;4.78;;
81697;SDS011;71109;52.514;5.708;2023-07-31T12:07:52;13.05;;;3.60;;
81697;SDS011;71109;52.514;5.708;2023-07-31T12:10:22;9.52;;;3.40;;
81697;SDS011;71109;52.514;5.708;2023-07-31T12:13:02;13.23;;;3.50;;
81697;SDS011;71109;52.514;5.708;2023-07-31T12:15:37;10.38;;;4.18;;
81697;SDS011;71109;52.514;5.708;2023-07-31T12:18:08;12.48;;;3.42;;
81697;SDS011;71109;52.514;5.708;2023-07-31T12:20:35;9.88;;;3.60;;
81697;SDS011;71109;52.514;5.708;2023-07-31T12:23:01;7.00;;;3.10;;
81697;SDS011;71109;52.514;5.708;2023-07-31T12:25:32;11.30;;;3.40;;
81697;SDS011;71109;52.514;5.708;2023-07-31T12:28:03;6.45;;;3.00;;
81697;SDS011;71109;52.514;5.708;2023-07-31T12:30:31;13.30;;;3.35;;
81697;SDS011;71109;52.514;5.708;2023-07-31T12:32:57;11.68;;;4.25;;
81697;SDS011;71109;52.514;5.708;2023-07-31T12:35:34;18.33;;;4.18;;
81697;SDS011;71109;52.514;5.708;2023-07-31T12:38:03;14.75;;;4.15;;
81697;SDS011;71109;52.514;5.708;2023-07-31T12:40:29;9.88;;;3.20;;
81697;SDS011;71109;52.514;5.708;2023-07-31T12:42:54;14.88;;;4.68;;
81697;SDS011;71109;52.514;5.708;2023-07-31T12:45:19;17.65;;;3.60;;
81697;SDS011;71109;52.514;5.708;2023-07-31T12:47:46;10.38;;;3.65;;
81697;SDS011;71109;52.514;5.708;2023-07-31T12:50:11;18.90;;;3.45;;
81697;SDS011;71109;52.514;5.708;2023-07-31T12:52:36;12.73;;;3.65;;
81697;SDS011;71109;52.514;5.708;2023-07-31T12:55:02;8.73;;;3.20;;
81697;SDS011;71109;52.514;5.708;2023-07-31T12:57:27;11.38;;;2.85;;
81697;SDS011;71109;52.514;5.708;2023-07-31T12:59:53;13.07;;;3.40;;
81697;SDS011;71109;52.514;5.708;2023-07-31T13:02:24;12.95;;;3.10;;
81697;SDS011;71109;52.514;5.708;2023-07-31T13:07:15;13.27;;;3.87;;
81697;SDS011;71109;52.514;5.708;2023-07-31T13:09:40;12.48;;;3.67;;
81697;SDS011;71109;52.514;5.708;2023-07-31T13:12:06;7.88;;;2.65;;
81697;SDS011;71109;52.514;5.708;2023-07-31T13:14:31;14.88;;;4.00;;
81697;SDS011;71109;52.514;5.708;2023-07-31T13:16:57;9.90;;;3.63;;
81697;SDS011;71109;52.514;5.708;2023-07-31T13:19:22;11.43;;;3.67;;
81697;SDS011;71109;52.514;5.708;2023-07-31T13:21:48;14.80;;;2.95;;
81697;SDS011;71109;52.514;5.708;2023-07-31T13:24:13;18.77;;;3.92;;
81697;SDS011;71109;52.514;5.708;2023-07-31T13:26:39;11.80;;;3.25;;
81697;SDS011;71109;52.514;5.708;2023-07-31T13:29:04;11.07;;;3.17;;
81697;SDS011;71109;52.514;5.708;2023-07-31T13:31:29;10.25;;;3.55;;
81697;SDS011;71109;52.514;5.708;2023-07-31T13:33:55;8.87;;;3.00;;
81697;SDS011;71109;52.514;5.708;2023-07-31T13:36:20;10.68;;;3.50;;
81697;SDS011;71109;52.514;5.708;2023-07-31T13:38:46;11.50;;;3.17;;
81697;SDS011;71109;52.514;5.708;2023-07-31T13:41:11;9.90;;;4.07;;
81697;SDS011;71109;52.514;5.708;2023-07-31T13:43:36;8.60;;;3.03;;
81697;SDS011;71109;52.514;5.708;2023-07-31T13:46:02;13.17;;;3.53;;
81697;SDS011;71109;52.514;5.708;2023-07-31T13:48:31;10.77;;;3.22;;
81697;SDS011;71109;52.514;5.708;2023-07-31T13:50:59;9.18;;;3.08;;
81697;SDS011;71109;52.514;5.708;2023-07-31T13:53:24;14.73;;;3.60;;
81697;SDS011;71109;52.514;5.708;2023-07-31T13:55:49;10.20;;;2.87;;
81697;SDS011;71109;52.514;5.708;2023-07-31T13:58:15;14.82;;;3.60;;
81697;SDS011;71109;52.514;5.708;2023-07-31T14:00:40;6.97;;;2.60;;
81697;SDS011;71109;52.514;5.708;2023-07-31T14:03:05;11.10;;;2.10;;
81697;SDS011;71109;52.514;5.708;2023-07-31T14:05:31;8.57;;;2.03;;
81697;SDS011;71109;52.514;5.708;2023-07-31T14:07:56;7.03;;;2.60;;
81697;SDS011;71109;52.514;5.708;2023-07-31T14:10:22;3.70;;;1.95;;
81697;SDS011;71109;52.514;5.708;2023-07-31T14:12:47;5.20;;;2.13;;
81697;SDS011;71109;52.514;5.708;2023-07-31T14:15:12;5.15;;;2.28;;
81697;SDS011;71109;52.514;5.708;2023-07-31T14:17:38;13.02;;;2.13;;
81697;SDS011;71109;52.514;5.708;2023-07-31T14:20:04;6.70;;;2.33;;
81697;SDS011;71109;52.514;5.708;2023-07-31T14:22:30;5.50;;;1.75;;
81697;SDS011;71109;52.514;5.708;2023-07-31T14:24:58;4.18;;;1.95;;
81697;SDS011;71109;52.514;5.708;2023-07-31T14:27:23;7.07;;;1.93;;
81697;SDS011;71109;52.514;5.708;2023-07-31T14:29:48;6.93;;;2.17;;
81697;SDS011;71109;52.514;5.708;2023-07-31T14:32:14;4.30;;;1.93;;
81697;SDS011;71109;52.514;5.708;2023-07-31T14:34:39;5.90;;;2.08;;
81697;SDS011;71109;52.514;5.708;2023-07-31T14:37:05;5.97;;;2.80;;
81697;SDS011;71109;52.514;5.708;2023-07-31T14:39:30;9.48;;;3.25;;
81697;SDS011;71109;52.514;5.708;2023-07-31T14:41:56;16.10;;;3.90;;
81697;SDS011;71109;52.514;5.708;2023-07-31T14:44:21;26.77;;;4.93;;
81697;SDS011;71109;52.514;5.708;2023-07-31T14:46:46;12.25;;;4.50;;